Time;durP1;ratioP1;P1;durP2;ratioP2;P2;SDS_P1;SDS_P2;PMS_P1;PMS_P2;Temp;Humidity;BMP_temperature;BMP_pressure;BME280_temperature;BME280_humidity;BME280_pressure;Samples;Min_cycle;Max_cycle;Signal;HPM_P1;HPM_P2
2021/11/17 02:27:46;;;;;;;94.43;29.05;;;8.00;86.80;;;;;;4931149;29;20043;-87
2021/11/17 02:30:15;;;;;;;73.57;26.63;;;8.00;86.80;;;;;;4932527;29;20477;-87
2021/11/17 02:33:19;;;;;;;79.78;27.50;;;8.00;86.80;;;;;;4931659;29;20059;-87
2021/11/17 02:36:21;;;;;;;87.70;27.73;;;8.00;86.80;;;;;;4931552;29;20059;-86
2021/11/17 02:39:33;;;;;;;79.72;27.63;;;8.00;86.80;;;;;;4927631;29;20052;-87
2021/11/17 02:42:10;;;;;;;80.45;27.90;;;8.00;86.80;;;;;;4912322;28;20107;-86
2021/11/17 02:45:10;;;;;;;87.30;29.02;;;8.00;86.80;;;;;;4925473;29;20111;-87
2021/11/17 02:48:13;;;;;;;97.20;29.30;;;8.10;86.80;;;;;;4927600;28;20056;-87
2021/11/17 02:51:10;;;;;;;83.28;27.50;;;8.10;86.80;;;;;;4917519;29;20116;-86
2021/11/17 02:54:04;;;;;;;83.25;27.77;;;8.10;86.90;;;;;;4924005;29;20111;-87
2021/11/17 02:56:56;;;;;;;93.22;29.15;;;8.10;86.80;;;;;;4921880;29;20143;-87
2021/11/17 02:59:51;;;;;;;86.68;28.15;;;8.10;86.80;;;;;;4926076;29;20047;-86
2021/11/17 03:02:27;;;;;;;86.75;28.08;;;8.10;86.90;;;;;;4915533;29;20126;-86
2021/11/17 03:04:56;;;;;;;94.53;29.52;;;8.10;86.90;;;;;;4931419;29;20051;-88
2021/11/17 03:07:42;;;;;;;88.35;29.02;;;8.10;86.90;;;;;;4930952;29;20052;-87
2021/11/17 03:10:11;;;;;;;93.35;29.80;;;8.10;86.90;;;;;;4916131;29;20464;-86
2021/11/17 03:13:05;;;;;;;78.90;26.60;;;8.10;86.90;;;;;;4915559;29;20052;-87
2021/11/17 03:15:48;;;;;;;88.32;29.77;;;8.20;86.90;;;;;;4933051;29;20060;-86
2021/11/17 03:18:20;;;;;;;97.30;30.65;;;8.20;86.90;;;;;;4935958;29;20055;-86
2021/11/17 03:21:00;;;;;;;94.38;30.52;;;8.20;86.90;;;;;;4934837;29;20691;-86
2021/11/17 03:23:59;;;;;;;93.95;29.83;;;8.20;86.90;;;;;;4934517;29;20059;-86
2021/11/17 03:26:59;;;;;;;78.05;26.92;;;8.20;86.90;;;;;;4934625;29;20134;-86
2021/11/17 03:29:45;;;;;;;83.18;30.00;;;8.20;86.90;;;;;;4934613;29;20288;-86
2021/11/17 03:32:31;;;;;;;75.35;26.70;;;8.20;86.90;;;;;;4933421;29;20056;-86
2021/11/17 03:35:16;;;;;;;70.88;25.52;;;8.20;86.90;;;;;;4933317;29;20055;-86
2021/11/17 03:38:09;;;;;;;76.75;27.00;;;8.20;86.90;;;;;;4934224;29;20047;-88
2021/11/17 03:41:09;;;;;;;65.38;25.92;;;8.20;86.90;;;;;;4933428;29;20051;-87
2021/11/17 03:44:08;;;;;;;65.70;24.27;;;8.30;87.00;;;;;;4923104;29;20048;-87
2021/11/17 03:46:50;;;;;;;64.97;25.40;;;8.20;86.90;;;;;;4922792;29;20099;-87
2021/11/17 03:49:48;;;;;;;69.75;26.15;;;8.30;86.90;;;;;;4917888;29;20048;-86
2021/11/17 03:52:40;;;;;;;66.38;26.83;;;8.20;86.90;;;;;;4919759;29;20066;-86
2021/11/17 03:55:34;;;;;;;63.30;25.33;;;8.30;86.90;;;;;;4934180;29;20111;-86
2021/11/17 03:58:07;;;;;;;;;;;8.30;87.00;;;;;;4933838;29;20115;-86
2021/11/17 04:00:48;;;;;;;64.65;24.95;;;8.30;86.90;;;;;;4934893;29;19923;-86
2021/11/17 04:03:24;;;;;;;62.10;25.58;;;8.30;86.90;;;;;;4934294;29;20052;-87
2021/11/17 04:05:57;;;;;;;66.40;27.25;;;8.30;86.90;;;;;;4933558;29;20059;-86
2021/11/17 04:09:07;;;;;;;61.60;25.08;;;8.30;87.00;;;;;;4933540;29;20059;-86
2021/11/17 04:11:45;;;;;;;55.10;24.63;;;8.30;87.00;;;;;;4933894;29;20051;-86
2021/11/17 04:14:25;;;;;;;55.30;25.25;;;8.30;86.90;;;;;;4932619;29;20048;-86
2021/11/17 04:17:13;;;;;;;62.20;25.67;;;8.30;87.00;;;;;;4933966;29;20055;-86
2021/11/17 04:20:09;;;;;;;62.65;26.15;;;8.30;86.90;;;;;;4933885;29;20048;-86
2021/11/17 04:22:57;;;;;;;56.53;26.17;;;8.30;86.90;;;;;;4921863;29;20048;-85
2021/11/17 04:25:35;;;;;;;67.82;27.55;;;8.30;86.90;;;;;;4920744;29;20440;-86
2021/11/17 04:28:42;;;;;;;60.88;27.40;;;8.30;86.90;;;;;;4933648;29;20485;-86
2021/11/17 04:31:19;;;;;;;71.50;28.50;;;8.40;86.90;;;;;;4917757;29;20060;-87
2021/11/17 04:34:12;;;;;;;71.55;30.00;;;8.40;86.90;;;;;;4932288;29;20063;-86
2021/11/17 04:37:03;;;;;;;70.07;29.25;;;8.40;86.90;;;;;;4928990;29;20056;-89
2021/11/17 04:39:38;;;;;;;65.07;29.20;;;8.40;86.90;;;;;;4934664;29;20232;-88
2021/11/17 04:42:18;;;;;;;73.78;29.35;;;8.40;86.90;;;;;;4931919;29;20048;-87
2021/11/17 04:44:44;;;;;;;64.90;28.05;;;8.40;86.90;;;;;;4933351;29;20064;-86
2021/11/17 04:47:41;;;;;;;65.68;28.85;;;8.40;86.90;;;;;;4933207;29;20055;-87
2021/11/17 04:50:07;;;;;;;64.93;29.50;;;8.40;86.90;;;;;;4931563;29;20055;-87
2021/11/17 04:53:09;;;;;;;69.85;29.92;;;8.40;86.90;;;;;;4931985;29;20051;-86
2021/11/17 04:56:09;;;;;;;70.93;30.45;;;8.40;86.90;;;;;;4921604;29;20059;-86
2021/11/17 04:59:04;;;;;;;72.18;30.60;;;8.40;86.90;;;;;;4896870;29;20407;-86
2021/11/17 05:02:04;;;;;;;73.30;32.20;;;8.40;86.90;;;;;;4882689;29;20060;-87
2021/11/17 05:04:55;;;;;;;77.70;32.03;;;8.40;86.90;;;;;;4896544;29;20083;-86
2021/11/17 05:07:57;;;;;;;87.13;32.67;;;8.40;86.90;;;;;;4882857;29;20056;-86
2021/11/17 05:10:51;;;;;;;84.70;33.10;;;8.40;86.90;;;;;;4897094;29;20057;-86
2021/11/17 05:13:26;;;;;;;85.38;36.90;;;8.40;86.90;;;;;;4896424;29;20048;-88
2021/11/17 05:16:38;;;;;;;93.68;35.70;;;8.40;86.90;;;;;;4911749;29;20470;-87
2021/11/17 05:19:13;;;;;;;86.70;35.78;;;8.40;86.90;;;;;;4910818;29;20481;-88
2021/11/17 05:21:46;;;;;;;89.15;35.50;;;8.40;86.90;;;;;;4894398;29;20048;-88
2021/11/17 05:24:31;;;;;;;99.20;38.42;;;8.40;86.80;;;;;;4911020;29;20142;-87
2021/11/17 05:27:13;;;;;;;81.03;35.05;;;8.40;86.90;;;;;;4897277;29;20104;-87
2021/11/17 05:30:08;;;;;;;85.85;37.60;;;8.40;86.90;;;;;;4886382;29;20052;-87
2021/11/17 05:33:06;;;;;;;85.50;37.38;;;8.40;86.90;;;;;;4896380;29;20506;-86
2021/11/17 05:35:48;;;;;;;97.38;37.90;;;8.40;86.90;;;;;;4918850;29;20055;-86
2021/11/17 05:38:44;;;;;;;97.03;36.85;;;8.40;86.90;;;;;;4932325;29;20056;-86
2021/11/17 05:41:14;;;;;;;93.07;38.78;;;8.40;86.90;;;;;;4931444;29;20056;-85
2021/11/17 05:44:12;;;;;;;100.22;38.97;;;8.40;86.90;;;;;;4932487;29;20044;-86
2021/11/17 05:46:38;;;;;;;90.47;36.45;;;8.40;86.90;;;;;;4921103;29;20048;-86
2021/11/17 05:49:11;;;;;;;99.75;40.10;;;8.40;86.90;;;;;;4931815;29;20051;-87
2021/11/17 05:51:54;;;;;;;100.28;39.28;;;8.40;87.00;;;;;;4929200;29;20106;-87
2021/11/17 05:54:39;;;;;;;102.20;41.45;;;8.40;87.00;;;;;;4932196;29;20519;-86
2021/11/17 05:57:30;;;;;;;106.68;40.55;;;8.40;87.00;;;;;;4930851;29;20043;-87
2021/11/17 06:00:16;;;;;;;93.15;38.90;;;8.50;87.00;;;;;;4931965;29;20509;-86
2021/11/17 06:03:20;;;;;;;99.20;37.67;;;8.40;87.00;;;;;;4930390;29;20055;-87
2021/11/17 06:05:46;;;;;;;89.00;36.40;;;8.50;87.00;;;;;;4930943;29;20094;-86
2021/11/17 06:08:13;;;;;;;108.28;41.22;;;8.50;87.00;;;;;;4931787;29;20059;-86
2021/11/17 06:10:46;;;;;;;84.03;38.05;;;8.50;87.00;;;;;;4930727;29;20129;-87
2021/11/17 06:13:15;;;;;;;89.68;37.60;;;8.50;87.00;;;;;;4917616;29;20052;-86
2021/11/17 06:15:44;;;;;;;88.57;37.70;;;8.50;87.00;;;;;;4933565;29;20086;-87
2021/11/17 06:18:18;;;;;;;94.32;40.15;;;8.50;87.00;;;;;;4930861;29;20711;-87
2021/11/17 06:20:47;;;;;;;93.22;39.35;;;8.50;87.00;;;;;;4931728;29;20059;-86
2021/11/17 06:23:23;;;;;;;88.80;38.13;;;8.50;87.00;;;;;;4931721;29;20059;-86
2021/11/17 06:25:51;;;;;;;88.32;37.50;;;8.60;87.00;;;;;;4931770;29;20047;-86
2021/11/17 06:28:21;;;;;;;88.07;38.08;;;8.50;87.10;;;;;;4931540;29;20059;-87
2021/11/17 06:30:49;;;;;;;92.28;38.00;;;8.60;87.10;;;;;;4932782;29;20055;-86
2021/11/17 06:33:16;;;;;;;74.57;36.35;;;8.60;87.10;;;;;;4932639;29;20083;-86
2021/11/17 06:35:44;;;;;;;86.97;38.67;;;8.60;87.10;;;;;;4931687;29;20059;-86
2021/11/17 06:38:11;;;;;;;80.60;36.67;;;8.60;87.10;;;;;;4930291;29;20486;-86
2021/11/17 06:40:42;;;;;;;74.05;34.55;;;8.60;87.10;;;;;;4931797;29;20051;-85
2021/11/17 06:43:09;;;;;;;77.28;35.20;;;8.70;87.10;;;;;;4916573;29;20104;-86
2021/11/17 06:45:43;;;;;;;72.93;35.17;;;8.70;87.10;;;;;;4933779;29;20055;-86
2021/11/17 06:48:11;;;;;;;74.72;35.42;;;8.70;87.10;;;;;;4930405;29;20051;-86
2021/11/17 06:50:41;;;;;;;73.95;35.47;;;8.70;87.10;;;;;;4930227;29;20055;-86
2021/11/17 06:53:09;;;;;;;68.03;34.40;;;8.70;87.10;;;;;;4931456;29;20051;-86
2021/11/17 06:55:37;;;;;;;74.05;35.35;;;8.70;87.10;;;;;;4928523;29;20051;-86
2021/11/17 06:58:04;;;;;;;68.05;34.33;;;8.70;87.10;;;;;;4931551;29;20056;-86
2021/11/17 07:00:34;;;;;;;68.18;33.67;;;8.70;87.10;;;;;;4933251;29;20048;-85
2021/11/17 07:03:03;;;;;;;60.15;33.90;;;8.70;87.10;;;;;;4931457;29;20055;-86
2021/11/17 07:05:30;;;;;;;68.15;33.58;;;8.80;87.10;;;;;;4931270;29;20055;-85
2021/11/17 07:07:59;;;;;;;66.25;32.95;;;8.70;87.10;;;;;;4931140;29;20539;-86
2021/11/17 07:10:28;;;;;;;59.63;32.63;;;8.80;87.00;;;;;;4931720;29;20051;-85
2021/11/17 07:12:56;;;;;;;69.93;34.90;;;8.70;87.10;;;;;;4931533;29;20048;-86
2021/11/17 07:15:24;;;;;;;60.40;32.75;;;8.80;87.00;;;;;;4931185;29;20051;-86
2021/11/17 07:17:52;;;;;;;64.93;33.75;;;8.80;87.00;;;;;;4931218;29;20051;-86
2021/11/17 07:20:19;;;;;;;66.63;32.53;;;8.80;87.00;;;;;;4931113;29;20513;-86
2021/11/17 07:22:46;;;;;;;62.03;33.05;;;8.80;87.00;;;;;;4931343;29;20531;-88
2021/11/17 07:25:18;;;;;;;57.28;32.35;;;8.80;87.00;;;;;;4931361;29;20048;-88
2021/11/17 07:27:45;;;;;;;71.32;34.80;;;8.80;87.00;;;;;;4932815;29;20051;-87
2021/11/17 07:30:15;;;;;;;79.13;34.53;;;8.80;87.00;;;;;;4930351;29;20059;-87
2021/11/17 07:32:42;;;;;;;79.13;36.17;;;8.80;87.00;;;;;;4922084;29;20055;-86
2021/11/17 07:35:10;;;;;;;77.20;35.78;;;8.80;87.10;;;;;;4924299;29;20055;-87
2021/11/17 07:37:39;;;;;;;71.55;34.58;;;8.80;87.10;;;;;;4934939;29;20043;-86
2021/11/17 07:40:10;;;;;;;64.95;33.30;;;8.80;87.10;;;;;;4932891;29;20110;-85
2021/11/17 07:42:37;;;;;;;77.70;36.88;;;8.90;87.10;;;;;;4933734;29;20460;-86
2021/11/17 07:45:06;;;;;;;83.97;36.60;;;8.90;87.10;;;;;;4935273;29;20056;-87
2021/11/17 07:47:33;;;;;;;72.22;34.63;;;8.90;87.20;;;;;;4935329;29;20048;-87
2021/11/17 07:50:02;;;;;;;74.45;36.40;;;8.90;87.20;;;;;;4935463;29;20055;-86
2021/11/17 07:52:29;;;;;;;67.20;35.78;;;8.90;87.20;;;;;;4935594;29;20472;-87
2021/11/17 07:54:57;;;;;;;88.68;39.47;;;8.90;87.20;;;;;;4935274;29;20528;-86
2021/11/17 07:57:24;;;;;;;95.80;40.45;;;8.90;87.20;;;;;;4937522;29;20409;-86
2021/11/17 07:59:50;;;;;;;87.35;39.33;;;8.90;87.20;;;;;;4934741;29;20058;-86
2021/11/17 08:02:20;;;;;;;118.93;43.00;;;9.00;87.20;;;;;;4935078;29;20055;-86
2021/11/17 08:04:48;;;;;;;84.20;38.58;;;8.90;87.30;;;;;;4935232;29;20043;-86
2021/11/17 08:07:21;;;;;;;101.10;41.15;;;9.00;87.30;;;;;;4933844;29;22413;-86
2021/11/17 08:09:49;;;;;;;104.68;41.58;;;9.00;87.30;;;;;;4936254;29;20055;-86
2021/11/17 08:12:18;;;;;;;100.35;39.20;;;9.00;87.30;;;;;;4936476;29;20118;-86
2021/11/17 08:14:45;;;;;;;97.53;39.63;;;9.10;87.40;;;;;;4931926;29;20426;-86
2021/11/17 08:17:13;;;;;;;121.88;44.30;;;9.10;87.40;;;;;;4933669;29;20509;-86
2021/11/17 08:19:40;;;;;;;94.82;39.42;;;9.10;87.40;;;;;;4935366;29;20040;-89
2021/11/17 08:22:07;;;;;;;106.13;41.03;;;9.10;87.40;;;;;;4934713;29;20044;-87
2021/11/17 08:24:37;;;;;;;102.90;41.30;;;9.20;87.50;;;;;;4937089;29;20146;-87
2021/11/17 08:27:08;;;;;;;96.22;40.28;;;9.20;87.50;;;;;;4934780;29;20062;-87
2021/11/17 08:29:36;;;;;;;85.75;37.30;;;9.20;87.50;;;;;;4933944;29;20063;-86
2021/11/17 08:32:03;;;;;;;94.72;39.75;;;9.20;87.50;;;;;;4934857;29;20051;-87
2021/11/17 08:34:30;;;;;;;116.75;42.03;;;9.30;87.50;;;;;;4934892;29;20048;-86
2021/11/17 08:36:57;;;;;;;79.00;36.42;;;9.40;87.50;;;;;;4934540;29;20056;-86
2021/11/17 08:39:25;;;;;;;76.30;36.95;;;9.40;87.60;;;;;;4936680;29;20047;-86
2021/11/17 08:41:52;;;;;;;79.28;37.92;;;9.40;87.50;;;;;;4934422;29;20048;-87
2021/11/17 08:44:20;;;;;;;77.18;35.97;;;9.40;87.50;;;;;;4934379;29;20138;-86
2021/11/17 08:46:51;;;;;;;74.22;36.45;;;9.40;87.60;;;;;;4932053;29;20044;-86
2021/11/17 08:49:19;;;;;;;76.07;35.35;;;9.40;87.60;;;;;;4934589;29;20103;-86
2021/11/17 08:51:47;;;;;;;71.65;35.28;;;9.40;87.60;;;;;;4935524;29;20520;-87
2021/11/17 08:54:15;;;;;;;76.45;35.28;;;9.50;87.60;;;;;;4935515;29;20056;-86
2021/11/17 08:56:42;;;;;;;78.63;35.58;;;9.50;87.60;;;;;;4933723;29;20524;-86
2021/11/17 08:59:10;;;;;;;70.30;34.10;;;9.50;87.60;;;;;;4934013;29;20449;-86
2021/11/17 09:01:37;;;;;;;64.93;33.80;;;9.50;87.60;;;;;;4934217;29;20535;-86
2021/11/17 09:04:09;;;;;;;68.65;33.63;;;9.60;87.50;;;;;;4934342;29;20047;-87
2021/11/17 09:06:37;;;;;;;73.07;35.50;;;9.60;87.60;;;;;;4935853;29;20122;-87
2021/11/17 09:09:06;;;;;;;69.13;34.33;;;9.60;87.60;;;;;;4933099;29;20103;-87
2021/11/17 09:11:36;;;;;;;63.15;32.03;;;9.60;87.50;;;;;;4933630;29;20531;-87
2021/11/17 09:14:05;;;;;;;58.20;30.15;;;9.70;87.50;;;;;;4933669;29;20094;-87
2021/11/17 09:16:33;;;;;;;59.05;30.23;;;9.70;87.50;;;;;;4933956;29;20089;-87
2021/11/17 09:19:02;;;;;;;52.42;29.45;;;9.70;87.50;;;;;;4933946;29;20086;-87
2021/11/17 09:21:33;;;;;;;53.53;30.15;;;9.70;87.50;;;;;;4935277;29;20044;-87
2021/11/17 09:24:01;;;;;;;49.80;28.88;;;9.70;87.40;;;;;;4933869;29;20051;-88
2021/11/17 09:26:28;;;;;;;49.15;29.10;;;9.80;87.40;;;;;;4932277;29;20043;-87
2021/11/17 09:28:57;;;;;;;50.22;29.42;;;9.80;87.40;;;;;;4933849;29;20181;-87
2021/11/17 09:31:26;;;;;;;42.65;27.25;;;9.80;87.40;;;;;;4933987;29;20051;-88
2021/11/17 09:33:53;;;;;;;49.15;27.85;;;9.90;87.40;;;;;;4934257;29;20086;-87
2021/11/17 09:36:25;;;;;;;48.15;27.02;;;9.90;87.40;;;;;;4935084;29;20044;-87
2021/11/17 09:38:55;;;;;;;45.60;27.20;;;9.90;87.30;;;;;;4933559;29;20052;-87
2021/11/17 09:41:32;;;;;;;43.85;26.75;;;9.90;87.30;;;;;;4933310;29;20052;-88
2021/11/17 09:44:05;;;;;;;44.40;26.35;;;9.90;87.30;;;;;;4933288;29;20039;-87
2021/11/17 09:46:34;;;;;;;45.13;26.35;;;9.90;87.30;;;;;;4933399;29;20059;-87
2021/11/17 09:49:11;;;;;;;48.72;26.20;;;10.00;87.30;;;;;;4933390;29;20059;-87
2021/11/17 09:51:49;;;;;;;41.10;24.85;;;10.00;87.30;;;;;;4931345;29;20051;-87
2021/11/17 09:54:47;;;;;;;42.90;25.23;;;10.00;87.30;;;;;;4934618;29;20058;-87
2021/11/17 09:57:18;;;;;;;41.72;24.52;;;10.10;87.20;;;;;;4934011;29;20055;-87
2021/11/17 09:59:48;;;;;;;46.92;25.65;;;10.10;87.20;;;;;;4933275;29;20492;-88
2021/11/17 10:02:37;;;;;;;36.88;24.08;;;10.10;87.20;;;;;;4933224;29;20055;-87
2021/11/17 10:05:58;;;;;;;38.25;23.55;;;10.20;87.20;;;;;;4931624;29;20142;-87
2021/11/17 10:14:16;;;;;;;41.40;22.25;;;10.30;87.20;;;;;;4932552;29;20051;-87
2021/11/17 10:16:44;;;;;;;35.20;22.48;;;10.30;87.10;;;;;;4932992;29;20508;-87
2021/11/17 10:19:26;;;;;;;31.55;21.30;;;10.40;87.20;;;;;;4918131;29;20044;-86
2021/11/17 10:22:04;;;;;;;34.05;20.42;;;10.40;87.10;;;;;;4931662;29;20047;-87
2021/11/17 10:25:00;;;;;;;33.33;20.52;;;10.40;87.10;;;;;;4933692;29;20052;-87
2021/11/17 10:27:29;;;;;;;29.33;19.35;;;10.40;87.10;;;;;;4928915;29;20060;-86
2021/11/17 10:30:21;;;;;;;30.23;19.52;;;10.40;87.00;;;;;;4931746;29;20048;-86
2021/11/17 10:33:16;;;;;;;32.08;19.33;;;10.40;87.00;;;;;;4931663;29;20052;-87
2021/11/17 10:36:00;;;;;;;31.08;19.48;;;10.50;87.00;;;;;;4931657;29;20424;-86
2021/11/17 10:38:32;;;;;;;30.23;18.75;;;10.50;86.90;;;;;;4931376;29;20047;-87
2021/11/17 10:41:04;;;;;;;28.77;18.63;;;10.50;86.90;;;;;;4931570;29;20044;-87
2021/11/17 10:43:49;;;;;;;26.73;17.92;;;10.50;86.80;;;;;;4930403;29;20049;-87
2021/11/17 10:46:24;;;;;;;29.75;18.25;;;10.60;86.80;;;;;;4916158;29;20112;-87
2021/11/17 10:49:05;;;;;;;27.20;17.83;;;10.60;86.80;;;;;;4931083;29;20056;-87
2021/11/17 10:51:36;;;;;;;26.23;16.90;;;10.60;86.80;;;;;;4932899;29;20071;-87
2021/11/17 10:54:11;;;;;;;26.30;17.48;;;10.60;86.70;;;;;;4931225;29;20048;-87
2021/11/17 10:56:41;;;;;;;24.35;16.60;;;10.70;86.70;;;;;;4931255;29;20055;-87
2021/11/17 10:59:08;;;;;;;22.73;15.63;;;10.70;86.70;;;;;;4931409;29;20138;-87
2021/11/17 11:01:40;;;;;;;25.95;16.83;;;10.70;86.60;;;;;;4931499;29;20052;-87
2021/11/17 11:04:22;;;;;;;24.15;15.82;;;10.80;86.60;;;;;;4931496;29;20058;-87
2021/11/17 11:07:03;;;;;;;23.00;15.10;;;10.70;86.50;;;;;;4929541;29;20074;-87
2021/11/17 11:09:44;;;;;;;21.27;14.45;;;10.80;86.50;;;;;;4932423;29;20052;-86
2021/11/17 11:12:15;;;;;;;21.77;15.45;;;10.80;86.50;;;;;;4930571;29;20059;-87
2021/11/17 11:14:48;;;;;;;21.17;15.48;;;10.80;86.40;;;;;;4931269;29;20047;-87
2021/11/17 11:17:37;;;;;;;19.98;14.68;;;10.80;86.40;;;;;;4934872;29;20055;-88
2021/11/17 11:20:16;;;;;;;21.52;14.70;;;10.90;86.40;;;;;;4935013;29;20457;-87
2021/11/17 11:23:05;;;;;;;19.92;14.23;;;10.90;86.40;;;;;;4933226;29;20070;-87
2021/11/17 11:25:47;;;;;;;17.23;12.95;;;10.90;86.30;;;;;;4922773;29;20048;-87
2021/11/17 11:28:20;;;;;;;18.25;13.00;;;10.90;86.30;;;;;;4917799;29;20051;-87
2021/11/17 11:30:50;;;;;;;16.87;12.47;;;10.90;86.30;;;;;;4934783;29;20051;-87
2021/11/17 11:33:19;;;;;;;17.98;12.95;;;10.90;86.20;;;;;;4936293;29;20062;-87
2021/11/17 11:36:12;;;;;;;19.50;13.15;;;10.90;86.20;;;;;;4934607;29;20047;-87
2021/11/17 11:39:09;;;;;;;20.38;13.75;;;11.00;86.20;;;;;;4934501;29;20452;-87
2021/11/17 11:41:46;;;;;;;17.73;12.50;;;11.00;86.20;;;;;;4934394;29;20429;-87
2021/11/17 11:44:17;;;;;;;17.83;12.80;;;11.00;86.20;;;;;;4934697;29;20134;-88
2021/11/17 11:46:50;;;;;;;20.77;12.70;;;11.00;86.20;;;;;;4934481;29;20055;-88
2021/11/17 11:49:47;;;;;;;20.80;13.10;;;11.10;86.30;;;;;;4934478;29;20059;-88
2021/11/17 11:52:23;;;;;;;18.52;12.45;;;11.20;86.30;;;;;;4919507;29;20059;-88
2021/11/17 11:54:54;;;;;;;18.05;12.25;;;11.20;86.30;;;;;;4934957;29;20441;-88
2021/11/17 11:57:24;;;;;;;17.27;11.27;;;11.20;86.30;;;;;;4936011;29;20048;-88
2021/11/17 12:00:16;;;;;;;17.35;12.27;;;11.30;86.30;;;;;;4934180;29;20052;-88
2021/11/17 12:02:51;;;;;;;19.73;12.30;;;11.40;86.30;;;;;;4932840;29;20461;-88
2021/11/17 12:05:30;;;;;;;16.15;10.70;;;11.40;86.30;;;;;;4933646;29;20043;-89
2021/11/17 12:08:13;;;;;;;15.68;10.75;;;11.40;86.20;;;;;;4932825;29;20051;-87
2021/11/17 12:11:02;;;;;;;18.35;11.18;;;11.50;86.20;;;;;;4932804;29;20235;-88
2021/11/17 12:13:35;;;;;;;14.43;10.45;;;11.60;86.20;;;;;;4921506;29;20452;-87
2021/11/17 12:16:07;;;;;;;19.77;10.65;;;11.60;86.20;;;;;;4934093;29;20099;-87
2021/11/17 12:19:04;;;;;;;14.75;10.27;;;11.70;86.10;;;;;;4936140;29;20108;-87
2021/11/17 12:21:43;;;;;;;19.27;9.65;;;11.80;86.10;;;;;;4934809;29;20055;-87
2021/11/17 12:24:20;;;;;;;14.95;9.18;;;11.90;86.00;;;;;;4934075;29;20176;-86
2021/11/17 12:27:00;;;;;;;13.50;9.07;;;11.90;85.90;;;;;;4933320;29;20055;-87
2021/11/17 12:29:33;;;;;;;10.73;8.70;;;12.00;85.90;;;;;;4933621;29;20052;-87
2021/11/17 12:31:59;;;;;;;15.63;8.77;;;12.00;85.80;;;;;;4933697;29;20058;-87
2021/11/17 12:34:48;;;;;;;13.07;8.38;;;12.10;85.60;;;;;;4933330;29;20091;-87
2021/11/17 12:37:25;;;;;;;17.42;7.55;;;12.20;85.50;;;;;;4919205;29;20498;-87
2021/11/17 12:40:04;;;;;;;13.50;7.72;;;12.20;85.30;;;;;;4934453;29;20062;-85
2021/11/17 12:42:34;;;;;;;13.48;6.80;;;12.20;85.20;;;;;;4934680;29;20062;-87
2021/11/17 12:45:33;;;;;;;16.50;7.78;;;12.30;85.00;;;;;;4933470;29;20110;-87
2021/11/17 12:48:25;;;;;;;13.07;7.63;;;12.30;84.80;;;;;;4929353;29;20107;-87
2021/11/17 12:50:58;;;;;;;13.32;6.80;;;12.30;84.60;;;;;;4917697;29;20058;-87
2021/11/17 12:53:45;;;;;;;14.75;6.28;;;12.30;84.40;;;;;;4924011;29;20059;-86
2021/11/17 12:56:33;;;;;;;10.10;5.78;;;12.40;84.30;;;;;;4922712;29;20064;-87
2021/11/17 12:59:10;;;;;;;12.35;6.38;;;12.40;84.10;;;;;;4915733;29;20526;-87
2021/11/17 13:01:38;;;;;;;10.02;5.97;;;12.40;84.00;;;;;;4915899;29;20524;-87
2021/11/17 13:04:22;;;;;;;11.02;5.72;;;12.40;83.90;;;;;;4914189;29;20131;-87
2021/11/17 13:06:53;;;;;;;10.18;5.78;;;12.40;83.70;;;;;;4913559;29;20104;-87
2021/11/17 13:09:32;;;;;;;11.70;5.97;;;12.40;83.60;;;;;;4913497;29;20048;-87
2021/11/17 13:12:06;;;;;;;13.18;5.65;;;12.40;83.50;;;;;;4928002;29;20469;-87
2021/11/17 13:14:49;;;;;;;10.98;5.72;;;12.30;83.40;;;;;;4919793;29;20048;-87
2021/11/17 13:17:21;;;;;;;11.02;5.70;;;12.30;83.30;;;;;;4915370;29;20084;-86
2021/11/17 13:19:59;;;;;;;9.32;4.93;;;12.30;83.20;;;;;;4915463;29;20131;-88
2021/11/17 13:22:31;;;;;;;;;;;12.30;83.20;;;;;;4915858;29;20091;-85
2021/11/17 13:25:23;;;;;;;11.00;5.20;;;12.40;83.10;;;;;;4914649;29;19978;-88
2021/11/17 13:28:03;;;;;;;12.70;4.85;;;12.30;83.10;;;;;;4931431;29;20500;-88
2021/11/17 13:30:44;;;;;;;11.13;4.90;;;12.40;83.00;;;;;;4933814;29;20052;-87
2021/11/17 13:33:32;;;;;;;12.35;5.00;;;12.40;83.00;;;;;;4931713;29;20051;-87
2021/11/17 13:36:04;;;;;;;13.27;4.60;;;12.40;82.90;;;;;;4932368;29;20055;-88
2021/11/17 13:38:31;;;;;;;11.57;5.05;;;12.40;82.80;;;;;;4931780;29;20066;-86
2021/11/17 13:41:02;;;;;;;15.80;4.78;;;12.40;82.70;;;;;;4932354;29;20408;-87
2021/11/17 13:43:30;;;;;;;11.48;4.90;;;12.40;82.60;;;;;;4931206;29;20053;-87
2021/11/17 13:46:01;;;;;;;9.80;4.43;;;12.40;82.50;;;;;;4932587;29;20062;-87
2021/11/17 13:48:33;;;;;;;11.30;4.50;;;12.40;82.50;;;;;;4934113;29;20525;-86
2021/11/17 13:51:04;;;;;;;11.45;4.50;;;12.40;82.40;;;;;;4932435;29;20398;-86
2021/11/17 13:53:32;;;;;;;9.90;4.32;;;12.40;82.30;;;;;;4932245;29;20058;-86
2021/11/17 13:56:21;;;;;;;11.50;4.05;;;12.40;82.20;;;;;;4930619;29;20078;-86
2021/11/17 13:58:49;;;;;;;10.02;4.00;;;12.40;82.10;;;;;;4930762;29;20480;-87
2021/11/17 14:01:17;;;;;;;11.90;4.43;;;12.40;82.00;;;;;;4932089;29;20391;-86
2021/11/17 14:03:44;;;;;;;9.60;3.75;;;12.40;81.90;;;;;;4933743;29;20055;-86
2021/11/17 14:06:16;;;;;;;14.43;4.28;;;12.40;81.90;;;;;;4931269;29;20056;-86
2021/11/17 14:08:43;;;;;;;11.07;3.80;;;12.40;81.80;;;;;;4931992;29;20103;-86
2021/11/17 14:11:11;;;;;;;10.07;3.60;;;12.40;81.70;;;;;;4930675;29;20524;-86
2021/11/17 14:13:39;;;;;;;9.90;4.00;;;12.30;81.70;;;;;;4932078;29;20047;-87
2021/11/17 14:16:06;;;;;;;10.60;3.90;;;12.30;81.60;;;;;;4931538;29;20509;-86
2021/11/17 14:18:34;;;;;;;12.13;4.35;;;12.30;81.60;;;;;;4933895;29;20147;-87
2021/11/17 14:21:04;;;;;;;13.30;3.53;;;12.30;81.60;;;;;;4931875;29;20539;-86
2021/11/17 14:23:31;;;;;;;11.85;4.07;;;12.20;81.50;;;;;;4931731;29;20048;-87
2021/11/17 14:25:58;;;;;;;10.43;3.63;;;12.20;81.50;;;;;;4931708;29;20142;-87
2021/11/17 14:28:29;;;;;;;9.48;3.67;;;12.20;81.50;;;;;;4931854;29;20122;-86
2021/11/17 14:31:08;;;;;;;12.25;4.25;;;12.10;81.40;;;;;;4931608;29;20048;-86
2021/11/17 14:33:36;;;;;;;13.13;3.30;;;12.10;81.40;;;;;;4933493;29;20052;-86
2021/11/17 14:36:10;;;;;;;12.50;3.50;;;12.10;81.40;;;;;;4931541;29;20047;-86
2021/11/17 14:38:39;;;;;;;10.15;3.70;;;12.00;81.40;;;;;;4930234;29;20447;-86
2021/11/17 14:41:07;;;;;;;8.65;3.50;;;12.00;81.40;;;;;;4931671;29;20111;-86
2021/11/17 14:43:35;;;;;;;12.30;3.30;;;12.00;81.40;;;;;;4931627;29;20047;-86
2021/11/17 14:46:02;;;;;;;11.35;3.28;;;11.90;81.40;;;;;;4931319;29;20481;-87
2021/11/17 14:48:32;;;;;;;10.73;3.72;;;11.90;81.40;;;;;;4933549;29;20059;-86
2021/11/17 14:51:00;;;;;;;12.07;3.70;;;11.90;81.50;;;;;;4934982;29;20052;-87
2021/11/17 14:53:40;;;;;;;10.35;3.30;;;11.90;81.50;;;;;;4935436;29;20446;-87
2021/11/17 14:56:08;;;;;;;10.00;3.35;;;11.90;81.60;;;;;;4935252;29;20058;-87
2021/11/17 14:58:35;;;;;;;12.10;3.50;;;11.80;81.60;;;;;;4935410;29;20051;-86
2021/11/17 15:01:07;;;;;;;11.13;3.72;;;11.80;81.60;;;;;;4935057;29;20056;-86
2021/11/17 15:03:34;;;;;;;9.25;3.10;;;11.70;81.70;;;;;;4937311;29;20485;-87
2021/11/17 15:06:01;;;;;;;7.30;2.88;;;11.70;81.70;;;;;;4935198;29;20060;-86
2021/11/17 15:08:28;;;;;;;13.35;3.83;;;11.70;81.70;;;;;;4935329;29;20066;-86
2021/11/17 15:10:55;;;;;;;10.48;3.30;;;11.60;81.80;;;;;;4935168;29;20048;-87
2021/11/17 15:13:22;;;;;;;9.52;3.00;;;11.60;81.70;;;;;;4934833;29;20059;-87
2021/11/17 15:15:49;;;;;;;10.27;3.45;;;11.60;81.80;;;;;;4936033;29;20052;-86
2021/11/17 15:18:21;;;;;;;11.88;3.28;;;11.50;81.80;;;;;;4934732;29;20058;-87
2021/11/17 15:20:49;;;;;;;9.98;3.15;;;11.40;81.90;;;;;;4934874;29;20091;-86
2021/11/17 15:23:19;;;;;;;11.23;3.35;;;11.50;81.90;;;;;;4934770;29;20091;-86
2021/11/17 15:25:48;;;;;;;11.00;3.58;;;11.40;81.90;;;;;;4934833;29;20497;-87
2021/11/17 15:28:34;;;;;;;11.50;3.17;;;11.40;82.00;;;;;;4934510;29;20051;-87
2021/11/17 15:31:14;;;;;;;11.63;3.22;;;11.30;82.00;;;;;;4933699;29;20469;-87
2021/11/17 15:33:42;;;;;;;9.30;3.20;;;11.30;82.00;;;;;;4933127;29;20171;-86
2021/11/17 15:36:10;;;;;;;12.23;3.30;;;11.30;82.00;;;;;;4935095;29;20060;-86
2021/11/17 15:38:39;;;;;;;14.00;3.40;;;11.20;82.00;;;;;;4934619;29;20055;-86
2021/11/17 15:41:08;;;;;;;9.35;3.03;;;11.20;82.00;;;;;;4934603;29;20055;-86
2021/11/17 15:43:36;;;;;;;11.30;3.35;;;11.10;82.00;;;;;;4934300;29;20107;-86
2021/11/17 15:46:03;;;;;;;9.80;3.05;;;11.00;82.00;;;;;;4934528;29;20052;-86
2021/11/17 15:48:35;;;;;;;9.93;2.90;;;11.00;82.00;;;;;;4935205;29;20056;-86
2021/11/17 15:51:24;;;;;;;12.85;3.17;;;10.90;82.10;;;;;;4934481;29;20048;-86
2021/11/17 15:53:52;;;;;;;10.32;4.03;;;10.90;82.20;;;;;;4934430;29;20398;-87
2021/11/17 15:56:20;;;;;;;10.50;3.35;;;10.90;82.30;;;;;;4932743;29;20060;-86